Time;durP1;ratioP1;P1;durP2;ratioP2;P2;SDS_P1;SDS_P2;PMS_P1;PMS_P2;Temp;Humidity;BMP_temperature;BMP_pressure;BME280_temperature;BME280_humidity;BME280_pressure;Samples;Min_cycle;Max_cycle;Signal;HPM_P1;HPM_P2
2022/02/15 00:00:49;;;;;;;5.07;1.95;;;;;;;7.68;68.63;100038.53;4958457;28;20466;-90
2022/02/15 00:03:14;;;;;;;7.95;2.30;;;;;;;7.73;68.64;100042.53;4958444;28;20023;-90
2022/02/15 00:05:40;;;;;;;6.82;1.90;;;;;;;7.69;67.96;100050.66;4958643;28;20488;-90
2022/02/15 00:08:05;;;;;;;9.35;2.30;;;;;;;7.74;67.48;100043.38;4957221;28;20039;-90
2022/02/15 00:10:31;;;;;;;8.32;2.63;;;;;;;7.63;68.32;100046.66;4958701;28;20062;-90
2022/02/15 00:12:56;;;;;;;14.73;4.70;;;;;;;7.69;68.35;100045.44;4958034;28;20027;-90
2022/02/15 00:15:22;;;;;;;11.20;2.17;;;;;;;7.57;68.04;100052.25;4958703;28;20466;-90
2022/02/15 00:17:48;;;;;;;5.55;2.00;;;;;;;7.54;68.64;100053.31;4958447;28;20028;-89
2022/02/15 00:20:13;;;;;;;9.57;1.90;;;;;;;7.48;68.74;100045.81;4970693;28;20027;-89
2022/02/15 00:22:39;;;;;;;9.20;2.22;;;;;;;7.49;69.00;100044.06;4977356;28;20493;-90
2022/02/15 00:25:05;;;;;;;13.55;2.00;;;;;;;7.55;68.83;100039.28;4977654;28;20473;-90
2022/02/15 00:27:31;;;;;;;7.40;2.05;;;;;;;7.60;69.13;100048.63;4975919;28;20389;-90
2022/02/15 00:29:56;;;;;;;6.88;1.70;;;;;;;7.51;69.23;100037.81;4976359;28;20106;-90
2022/02/15 00:32:22;;;;;;;9.05;2.28;;;;;;;7.56;69.62;100055.78;4977677;28;20463;-90
2022/02/15 00:34:47;;;;;;;7.22;2.22;;;;;;;7.53;68.72;100048.16;4977309;28;20023;-90
2022/02/15 00:37:12;;;;;;;6.90;2.00;;;;;;;7.54;69.43;100053.31;4977217;28;20077;-90
2022/02/15 00:39:38;;;;;;;8.18;2.40;;;;;;;7.55;68.90;100059.34;4976166;28;20461;-90
2022/02/15 00:42:04;;;;;;;7.82;1.88;;;;;;;7.47;69.23;100057.22;4977232;28;20384;-90
2022/02/15 00:44:31;;;;;;;11.18;2.45;;;;;;;7.41;69.00;100056.75;4977098;28;20026;-90
2022/02/15 00:47:00;;;;;;;4.85;1.80;;;;;;;7.38;68.74;100062.97;4977110;28;20104;-90
2022/02/15 00:49:26;;;;;;;9.88;2.35;;;;;;;7.37;69.11;100063.91;4970344;28;20047;-91
2022/02/15 00:51:51;;;;;;;7.45;2.50;;;;;;;7.21;68.17;100061.38;4958043;28;20058;-90
2022/02/15 00:54:17;;;;;;;6.85;2.03;;;;;;;7.23;68.71;100076.97;4956477;29;20023;-90
2022/02/15 00:56:43;;;;;;;6.63;1.70;;;;;;;7.15;68.91;100064.38;4957838;28;20375;-90
2022/02/15 00:59:09;;;;;;;7.85;1.85;;;;;;;7.06;69.41;100060.50;4956045;28;20020;-90
2022/02/15 01:01:36;;;;;;;4.47;1.30;;;;;;;7.06;69.88;100063.13;4957357;28;20032;-90
2022/02/15 01:04:02;;;;;;;9.35;2.22;;;;;;;7.17;69.59;100066.88;4957110;28;20030;-89
2022/02/15 01:06:28;;;;;;;5.78;1.63;;;;;;;7.19;69.61;100062.38;4957322;28;20031;-90
2022/02/15 01:08:53;;;;;;;5.32;1.50;;;;;;;7.21;68.92;100071.84;4956008;28;20031;-89
2022/02/15 01:11:19;;;;;;;7.88;1.70;;;;;;;7.25;69.38;100062.88;4956013;28;20114;-89
2022/02/15 01:13:44;;;;;;;4.15;1.30;;;;;;;7.26;69.21;100067.16;4957777;28;20532;-90
2022/02/15 01:16:09;;;;;;;8.50;2.13;;;;;;;7.26;68.78;100061.09;4957274;28;20027;-89
2022/02/15 01:18:35;;;;;;;9.57;1.67;;;;;;;7.11;68.68;100053.25;4958732;28;20035;-89
2022/02/15 01:21:01;;;;;;;6.25;1.33;;;;;;;7.15;68.87;100062.59;4976106;28;20042;-90
2022/02/15 01:23:26;;;;;;;5.53;1.27;;;;;;;7.19;68.63;100065.88;4976221;28;20030;-89
2022/02/15 01:25:52;;;;;;;6.43;1.70;;;;;;;7.22;68.23;100070.88;4974684;28;20026;-90
2022/02/15 01:28:18;;;;;;;8.18;1.42;;;;;;;7.25;68.95;100080.34;4976190;28;20031;-89
2022/02/15 01:30:44;;;;;;;6.95;1.35;;;;;;;7.27;69.34;100081.09;4976260;28;20035;-89
2022/02/15 01:33:10;;;;;;;4.65;1.50;;;;;;;7.23;69.55;100075.19;4976176;28;20027;-89
2022/02/15 01:35:36;;;;;;;8.20;1.55;;;;;;;7.26;69.41;100076.78;4975863;28;20031;-90
2022/02/15 01:38:01;;;;;;;4.75;1.20;;;;;;;7.28;68.99;100087.97;4975997;28;20465;-89
2022/02/15 01:40:27;;;;;;;4.18;1.40;;;;;;;7.17;68.73;100079.91;4975823;28;20030;-89
2022/02/15 01:42:52;;;;;;;10.07;2.10;;;;;;;7.17;68.51;100085.13;4976092;28;20040;-89
2022/02/15 01:45:18;;;;;;;8.38;1.50;;;;;;;7.19;68.99;100083.28;4975937;28;20027;-90
2022/02/15 01:47:45;;;;;;;3.80;1.30;;;;;;;7.17;68.85;100085.13;4975899;28;20101;-90
2022/02/15 01:50:12;;;;;;;5.30;1.45;;;;;;;7.07;69.16;100077.88;4960663;28;20499;-90
2022/02/15 01:52:38;;;;;;;7.43;1.70;;;;;;;7.08;69.38;100084.75;4955632;28;20032;-89
2022/02/15 01:55:05;;;;;;;6.63;1.52;;;;;;;7.06;69.03;100089.22;4955700;28;20102;-89
2022/02/15 01:57:32;;;;;;;6.57;1.38;;;;;;;7.09;69.14;100086.44;4955427;28;20477;-89
2022/02/15 01:59:58;;;;;;;7.03;1.48;;;;;;;7.08;68.74;100084.75;4954122;28;20038;-89
2022/02/15 02:02:25;;;;;;;5.50;1.63;;;;;;;7.01;68.85;100086.06;4956571;28;20051;-88
2022/02/15 02:07:35;;;;;;;11.93;2.03;;;;;;;7.00;69.39;100083.53;4956861;28;20561;-88
2022/02/15 02:10:00;;;;;;;8.80;1.75;;;;;;;7.02;69.58;100074.69;4956773;28;20019;-89
2022/02/15 02:12:26;;;;;;;11.60;1.88;;;;;;;7.11;69.75;100081.97;4956504;28;20027;-88
2022/02/15 02:15:19;;;;;;;12.45;2.40;;;;;;;7.09;69.49;100082.97;4958261;28;20027;-90
2022/02/15 02:17:45;;;;;;;8.75;1.65;;;;;;;7.08;69.58;100078.69;4974102;28;20043;-88
2022/02/15 02:20:11;;;;;;;6.82;1.63;;;;;;;7.16;69.93;100076.47;4978001;28;20039;-88
2022/02/15 02:22:37;;;;;;;11.65;1.85;;;;;;;7.25;69.81;100080.34;4976463;28;20030;-87
2022/02/15 02:25:03;;;;;;;10.40;2.10;;;;;;;7.23;69.65;100063.91;4977517;28;20105;-88
2022/02/15 02:27:31;;;;;;;5.57;1.38;;;;;;;7.34;69.75;100056.25;4978326;28;20019;-88
2022/02/15 02:29:57;;;;;;;9.30;1.67;;;;;;;7.35;69.20;100053.56;4978367;28;20085;-90
2022/02/15 02:32:28;;;;;;;11.57;1.85;;;;;;;7.27;69.19;100039.31;4977190;28;20046;-89
2022/02/15 02:34:55;;;;;;;5.97;1.52;;;;;;;7.18;68.97;100037.22;4976630;28;20175;-89
2022/02/15 02:37:21;;;;;;;6.47;1.00;;;;;;;7.27;68.84;100052.34;4974245;28;20120;-89
2022/02/15 02:39:49;;;;;;;8.82;1.42;;;;;;;7.20;68.94;100037.97;4974133;28;20023;-89
2022/02/15 02:42:20;;;;;;;11.48;2.17;;;;;;;7.13;69.09;100033.13;4975310;28;20035;-88
2022/02/15 02:44:46;;;;;;;5.35;1.98;;;;;;;7.13;69.15;100019.25;4975221;28;20026;-89
2022/02/15 02:47:12;;;;;;;8.32;1.85;;;;;;;7.18;69.93;100018.94;4974985;28;20038;-89
2022/02/15 02:49:37;;;;;;;10.95;1.58;;;;;;;7.21;69.75;100018.75;4973892;28;20022;-89
2022/02/15 02:52:04;;;;;;;13.02;1.90;;;;;;;7.27;69.76;100023.63;4974611;28;20122;-89
2022/02/15 02:54:30;;;;;;;11.10;1.85;;;;;;;7.26;69.27;100016.72;4974823;28;20031;-88
2022/02/15 02:56:56;;;;;;;10.38;1.85;;;;;;;7.32;70.02;100009.34;4975095;28;20027;-89
2022/02/15 02:59:22;;;;;;;7.82;1.70;;;;;;;7.30;69.30;99998.13;4975085;28;20039;-88
2022/02/15 03:01:48;;;;;;;7.32;1.30;;;;;;;7.41;69.76;100004.50;4974947;28;20049;-89
2022/02/15 03:04:14;;;;;;;9.65;1.42;;;;;;;7.45;70.06;100003.38;4974622;28;20027;-89
2022/02/15 03:06:39;;;;;;;6.25;1.23;;;;;;;7.51;70.25;100001.22;4974707;28;20085;-89
2022/02/15 03:09:06;;;;;;;8.50;1.90;;;;;;;7.53;69.52;99990.69;4974800;28;20030;-88
2022/02/15 03:11:32;;;;;;;6.57;1.25;;;;;;;7.61;70.33;99993.66;4974669;28;20300;-89
2022/02/15 03:14:00;;;;;;;8.82;1.42;;;;;;;7.63;69.95;99988.34;4973438;28;20026;-88
2022/02/15 03:16:27;;;;;;;7.35;1.73;;;;;;;7.63;69.78;99978.72;4973973;28;20469;-88
2022/02/15 03:18:52;;;;;;;15.55;2.33;;;;;;;7.58;69.15;99977.31;4956942;28;20063;-89
2022/02/15 03:21:18;;;;;;;5.93;1.08;;;;;;;7.54;68.94;99974.91;4955329;28;20023;-89
2022/02/15 03:23:44;;;;;;;5.88;1.10;;;;;;;7.50;69.45;99981.28;4954914;28;20106;-89
2022/02/15 03:26:10;;;;;;;9.10;1.45;;;;;;;7.38;68.87;99968.13;4957288;28;20019;-88
2022/02/15 03:28:36;;;;;;;10.10;2.55;;;;;;;7.43;69.04;99981.75;4972259;28;20164;-89
2022/02/15 03:31:03;;;;;;;7.55;1.50;;;;;;;7.42;69.07;99970.44;4974822;28;20589;-89
2022/02/15 03:33:28;;;;;;;3.75;1.00;;;;;;;7.41;69.19;99968.78;4974596;28;20382;-89
2022/02/15 03:35:53;;;;;;;10.20;1.67;;;;;;;7.42;69.24;99973.03;4974578;28;20034;-89
2022/02/15 03:38:19;;;;;;;8.85;1.50;;;;;;;7.45;69.51;99975.47;4974546;28;20038;-89
2022/02/15 03:43:28;;;;;;;7.22;1.40;;;;;;;7.72;69.00;99966.84;4974527;28;20409;-89
2022/02/15 03:45:54;;;;;;;5.50;1.25;;;;;;;7.68;69.24;99945.31;4970678;28;20019;-89
2022/02/15 03:48:19;;;;;;;7.88;1.30;;;;;;;7.69;69.87;99949.59;4955366;28;20063;-89
2022/02/15 03:50:45;;;;;;;7.47;1.40;;;;;;;7.82;69.54;99959.25;4955271;28;20028;-89
2022/02/15 03:53:10;;;;;;;8.98;1.52;;;;;;;7.92;70.03;99965.59;4955147;28;20049;-89
2022/02/15 03:55:36;;;;;;;6.38;1.40;;;;;;;7.94;69.06;99954.09;4955015;28;20086;-89
2022/02/15 03:58:02;;;;;;;9.27;1.30;;;;;;;8.08;68.99;99968.06;4954988;28;20028;-89
2022/02/15 04:00:27;;;;;;;13.82;1.23;;;;;;;8.13;69.44;99955.50;4955320;28;20031;-89
2022/02/15 04:02:55;;;;;;;7.30;1.25;;;;;;;8.14;69.35;99942.34;4955484;28;20540;-89
2022/02/15 04:05:21;;;;;;;7.90;1.52;;;;;;;8.18;68.73;99953.44;4958593;28;20035;-89
2022/02/15 04:07:46;;;;;;;6.50;1.35;;;;;;;8.24;68.79;99954.84;4957570;28;20449;-89
2022/02/15 04:10:11;;;;;;;8.18;1.08;;;;;;;8.31;68.24;99950.84;4958695;28;20118;-89
2022/02/15 04:12:37;;;;;;;5.88;1.17;;;;;;;8.36;68.92;99935.72;4958405;28;20087;-90
2022/02/15 04:15:02;;;;;;;8.43;1.65;;;;;;;8.50;68.61;99943.50;4958644;28;20035;-89
2022/02/15 04:17:28;;;;;;;8.18;1.50;;;;;;;8.56;68.90;99934.41;4976085;28;20066;-89
2022/02/15 04:19:53;;;;;;;13.52;2.80;;;;;;;8.60;68.18;99930.66;4977725;28;20038;-90
2022/02/15 04:22:18;;;;;;;10.18;1.85;;;;;;;8.59;68.21;99925.50;4977877;28;20461;-90
2022/02/15 04:24:44;;;;;;;13.27;1.40;;;;;;;8.70;67.97;99926.47;4977733;28;20030;-90
2022/02/15 04:27:09;;;;;;;6.38;1.30;;;;;;;8.75;68.32;99934.03;4977981;28;20404;-90
2022/02/15 04:29:35;;;;;;;12.25;1.50;;;;;;;8.72;68.28;99913.28;4977444;28;20042;-89
2022/02/15 04:32:00;;;;;;;9.80;2.10;;;;;;;8.80;68.30;99918.00;4977476;28;20030;-89
2022/02/15 04:34:25;;;;;;;9.07;1.73;;;;;;;8.86;68.10;99922.81;4977427;28;20015;-89
2022/02/15 04:36:51;;;;;;;8.57;1.65;;;;;;;8.83;67.91;99915.19;4977446;28;20042;-89
2022/02/15 04:39:16;;;;;;;8.38;1.30;;;;;;;8.88;67.61;99910.44;4975972;28;20370;-89
2022/02/15 04:41:42;;;;;;;14.32;1.65;;;;;;;8.95;67.93;99905.63;4977241;28;20022;-89
2022/02/15 04:44:07;;;;;;;12.27;3.28;;;;;;;9.01;67.99;99920.94;4977452;28;20030;-89
2022/02/15 04:46:33;;;;;;;13.88;1.35;;;;;;;8.99;67.65;99905.31;4966745;28;20445;-89
2022/02/15 04:49:00;;;;;;;6.22;1.48;;;;;;;8.99;68.18;99891.38;4956206;28;20114;-89
2022/02/15 04:51:25;;;;;;;10.18;1.90;;;;;;;9.04;69.12;99894.50;4957805;28;20102;-89
2022/02/15 04:53:51;;;;;;;13.00;1.63;;;;;;;9.05;68.07;99886.53;4957865;28;20031;-89
2022/02/15 04:56:17;;;;;;;8.55;1.35;;;;;;;9.20;68.30;99883.78;4957657;28;20402;-89
2022/02/15 04:58:42;;;;;;;7.53;1.08;;;;;;;9.20;68.24;99891.66;4957195;28;20027;-89
2022/02/15 05:01:08;;;;;;;13.80;1.92;;;;;;;9.26;68.55;99893.84;4956330;28;20082;-89
2022/02/15 05:03:34;;;;;;;9.75;1.52;;;;;;;9.35;69.32;99887.13;4954748;28;20050;-90
2022/02/15 05:05:59;;;;;;;12.85;1.60;;;;;;;9.31;69.05;99887.31;4956264;28;20027;-89
2022/02/15 05:08:25;;;;;;;10.23;1.85;;;;;;;9.42;68.77;99886.56;4956485;28;20037;-89
2022/02/15 05:10:50;;;;;;;17.45;2.05;;;;;;;9.43;69.66;99869.91;4956705;28;20466;-89
2022/02/15 05:13:15;;;;;;;10.50;1.70;;;;;;;9.50;69.38;99875.56;4956712;28;20023;-89
2022/02/15 05:15:41;;;;;;;12.10;1.77;;;;;;;9.57;69.59;99870.69;4962384;28;20092;-90
2022/02/15 05:18:07;;;;;;;18.25;1.83;;;;;;;9.61;69.28;99862.47;4976659;28;20209;-90
2022/02/15 05:20:33;;;;;;;13.60;1.98;;;;;;;9.59;69.86;99845.19;4976625;28;20563;-90
2022/02/15 05:22:58;;;;;;;9.07;1.13;;;;;;;9.74;69.30;99859.81;4976789;28;20457;-90
2022/02/15 05:25:24;;;;;;;6.90;1.20;;;;;;;9.79;69.56;99865.53;4975215;28;20038;-90
2022/02/15 05:27:49;;;;;;;12.20;1.48;;;;;;;9.84;68.92;99852.94;4976152;28;20043;-90
2022/02/15 05:30:15;;;;;;;8.80;1.65;;;;;;;9.79;69.82;99859.47;4973950;28;20097;-89
2022/02/15 05:32:40;;;;;;;11.18;2.08;;;;;;;9.76;69.65;99842.19;4956040;28;20027;-89
2022/02/15 05:35:08;;;;;;;14.68;2.20;;;;;;;9.84;69.63;99852.13;4955218;29;20031;-90
2022/02/15 05:37:33;;;;;;;11.52;2.05;;;;;;;9.96;69.64;99860.88;4956584;28;20027;-89
2022/02/15 05:39:59;;;;;;;11.60;1.42;;;;;;;10.00;69.39;99846.56;4957067;28;20082;-89
2022/02/15 05:42:25;;;;;;;8.35;1.55;;;;;;;10.03;69.39;99862.91;4956765;28;20107;-89
2022/02/15 05:44:50;;;;;;;9.98;3.03;;;;;;;9.96;69.68;99861.69;4956857;28;20023;-90
2022/02/15 05:47:16;;;;;;;10.50;1.85;;;;;;;10.09;69.65;99858.97;4974033;28;20035;-89
2022/02/15 05:52:25;;;;;;;9.57;1.50;;;;;;;10.01;70.35;99856.09;4976029;28;20030;-90
2022/02/15 05:54:50;;;;;;;9.85;1.40;;;;;;;10.14;70.20;99841.13;4974902;28;20417;-90
2022/02/15 05:57:16;;;;;;;5.40;1.23;;;;;;;10.21;70.29;99828.38;4975285;28;20030;-90
2022/02/15 05:59:42;;;;;;;15.25;1.70;;;;;;;10.21;70.57;99834.47;4976210;28;20027;-90
2022/02/15 06:02:08;;;;;;;12.00;2.17;;;;;;;10.28;69.98;99832.22;4976144;28;20027;-90
2022/02/15 06:04:33;;;;;;;10.05;1.40;;;;;;;10.15;70.80;99834.94;4975793;28;20106;-90
2022/02/15 06:06:58;;;;;;;10.10;1.60;;;;;;;10.27;70.22;99833.19;4976428;28;20046;-91
2022/02/15 06:09:24;;;;;;;11.98;1.80;;;;;;;10.25;70.06;99821.97;4976298;28;20423;-89
2022/02/15 06:11:49;;;;;;;10.90;1.35;;;;;;;10.22;70.39;99833.50;4976276;28;20026;-90
2022/02/15 06:14:15;;;;;;;9.00;1.45;;;;;;;10.34;69.95;99828.31;4975760;28;20072;-90
2022/02/15 06:16:40;;;;;;;13.75;1.98;;;;;;;10.21;70.79;99834.47;4975446;28;20035;-91
2022/02/15 06:19:05;;;;;;;12.30;1.55;;;;;;;10.23;70.62;99816.81;4975600;28;20023;-90
2022/02/15 06:21:31;;;;;;;11.05;1.30;;;;;;;10.19;70.45;99799.66;4975965;28;20023;-90
2022/02/15 06:23:57;;;;;;;14.93;2.72;;;;;;;10.15;70.71;99797.34;4976287;28;20019;-90
2022/02/15 06:26:23;;;;;;;8.35;1.63;;;;;;;10.24;70.41;99787.00;4975307;28;20091;-90
2022/02/15 06:28:48;;;;;;;8.15;1.65;;;;;;;9.99;71.27;99781.94;4975030;28;20033;-90
2022/02/15 06:31:14;;;;;;;15.13;1.42;;;;;;;9.97;71.51;99794.34;4975456;28;20027;-90
2022/02/15 06:33:40;;;;;;;9.02;1.27;;;;;;;10.12;70.96;99787.94;4975322;28;20026;-90
2022/02/15 06:36:06;;;;;;;12.60;1.65;;;;;;;10.19;70.43;99789.16;4975526;28;20085;-90
2022/02/15 06:38:32;;;;;;;16.45;1.98;;;;;;;10.24;70.41;99788.78;4975648;28;20027;-91
2022/02/15 06:40:58;;;;;;;11.32;1.50;;;;;;;10.24;70.63;99792.25;4974243;28;20038;-92
2022/02/15 06:43:23;;;;;;;15.52;1.95;;;;;;;10.02;71.10;99782.56;4974192;28;20031;-91
2022/02/15 06:45:48;;;;;;;19.02;1.70;;;;;;;10.19;70.93;99777.81;4975192;28;20061;-90
2022/02/15 06:48:14;;;;;;;14.15;1.92;;;;;;;10.11;71.23;99760.88;4974972;28;20037;-90
2022/02/15 06:50:39;;;;;;;13.02;1.80;;;;;;;10.21;70.75;99765.41;4973628;28;20058;-91
2022/02/15 06:53:05;;;;;;;11.77;1.55;;;;;;;10.39;70.24;99752.72;4975382;28;20113;-89
2022/02/15 06:55:30;;;;;;;10.63;1.85;;;;;;;10.42;70.16;99753.28;4973631;28;20058;-90
2022/02/15 06:57:56;;;;;;;11.23;1.92;;;;;;;10.41;70.41;99746.38;4974140;28;20481;-89
2022/02/15 07:00:21;;;;;;;13.35;1.92;;;;;;;10.26;70.88;99745.72;4975069;28;20477;-90
2022/02/15 07:02:46;;;;;;;9.23;1.65;;;;;;;10.37;70.78;99733.59;4974864;28;20031;-89
2022/02/15 07:05:12;;;;;;;10.10;1.65;;;;;;;10.56;70.66;99739.09;4978330;28;20035;-91
2022/02/15 07:07:38;;;;;;;15.32;2.53;;;;;;;10.63;70.35;99729.78;4998160;28;20076;-91
2022/02/15 07:10:05;;;;;;;16.02;2.33;;;;;;;10.54;70.73;99727.88;4997264;28;20088;-90
2022/02/15 07:12:31;;;;;;;18.40;1.35;;;;;;;10.32;71.87;99731.34;4995642;28;20027;-94
2022/02/15 07:14:57;;;;;;;11.27;1.63;;;;;;;10.62;70.80;99730.72;4993243;28;20030;-95
2022/02/15 07:17:24;;;;;;;14.27;2.08;;;;;;;10.24;71.85;99713.53;4967739;28;20516;-95
2022/02/15 07:19:50;;;;;;;12.73;1.95;;;;;;;10.45;72.21;99720.75;4966646;28;20019;-95
2022/02/15 07:22:16;;;;;;;12.73;1.90;;;;;;;10.67;71.31;99704.94;4977066;28;20046;-93
2022/02/15 07:24:41;;;;;;;12.63;2.03;;;;;;;10.72;71.11;99709.81;4973807;28;20469;-93
2022/02/15 07:27:07;;;;;;;12.65;1.80;;;;;;;10.73;71.34;99716.75;4972949;28;20023;-90
2022/02/15 07:29:32;;;;;;;16.77;2.53;;;;;;;10.66;71.39;99713.78;4974829;28;20152;-91
2022/02/15 07:31:58;;;;;;;16.55;2.10;;;;;;;10.63;71.85;99718.44;4968354;28;20023;-90
2022/02/15 07:34:23;;;;;;;16.23;1.98;;;;;;;10.51;72.54;99701.88;4974510;28;20069;-91
2022/02/15 07:36:50;;;;;;;14.57;2.00;;;;;;;10.73;72.19;99710.69;4975682;28;20100;-92
2022/02/15 07:39:16;;;;;;;14.85;1.80;;;;;;;10.93;71.36;99709.91;4976374;28;20034;-93
2022/02/15 07:41:41;;;;;;;20.00;2.72;;;;;;;10.74;71.99;99699.19;4976775;28;20026;-93
2022/02/15 07:44:07;;;;;;;14.55;3.17;;;;;;;10.65;72.50;99696.34;4976400;28;20473;-92
2022/02/15 07:46:32;;;;;;;13.93;2.65;;;;;;;10.68;72.51;99700.53;4976695;28;20063;-92
2022/02/15 07:48:58;;;;;;;17.58;2.55;;;;;;;10.76;72.10;99698.13;4977350;28;20037;-89
2022/02/15 07:51:23;;;;;;;12.98;2.85;;;;;;;10.85;71.92;99693.94;4977926;28;20038;-91
2022/02/15 07:53:48;;;;;;;14.13;2.58;;;;;;;10.87;71.89;99699.91;4978295;28;20027;-89
2022/02/15 07:56:14;;;;;;;16.63;2.85;;;;;;;10.90;72.13;99700.50;4977412;28;20033;-89
2022/02/15 07:58:39;;;;;;;16.05;2.55;;;;;;;10.64;73.11;99688.59;4977927;28;20046;-89
2022/02/15 08:01:05;;;;;;;14.23;1.75;;;;;;;11.00;71.83;99700.59;4977051;28;20114;-89
2022/02/15 08:03:31;;;;;;;17.00;1.92;;;;;;;10.90;72.42;99699.66;4982247;28;20102;-90
2022/02/15 08:05:56;;;;;;;11.40;1.83;;;;;;;11.18;71.51;99695.63;4978335;28;20039;-93
2022/02/15 08:08:21;;;;;;;10.48;1.80;;;;;;;11.16;71.78;99684.41;4977144;28;20533;-91
2022/02/15 08:10:47;;;;;;;11.65;2.03;;;;;;;11.25;71.20;99685.44;4977774;28;20481;-91
2022/02/15 08:13:18;;;;;;;13.75;2.22;;;;;;;11.44;71.09;99688.22;4978447;28;20110;-91
2022/02/15 08:15:46;;;;;;;19.27;1.95;;;;;;;11.43;70.67;99673.41;4971243;28;20023;-91
2022/02/15 08:18:12;;;;;;;13.60;2.00;;;;;;;11.31;71.03;99674.41;4959034;28;20023;-92
2022/02/15 08:20:38;;;;;;;13.32;2.45;;;;;;;11.12;71.86;99672.47;4967811;28;20023;-92
2022/02/15 08:23:04;;;;;;;12.98;2.33;;;;;;;11.23;71.65;99679.47;4977648;28;20042;-90
2022/02/15 08:25:30;;;;;;;8.95;2.17;;;;;;;11.35;71.60;99678.44;4976786;28;20532;-92
2022/02/15 08:27:56;;;;;;;16.20;2.05;;;;;;;11.37;71.18;99666.00;4972142;28;20118;-92
2022/02/15 08:30:22;;;;;;;8.35;2.05;;;;;;;11.42;71.36;99668.28;4977022;28;20023;-93
2022/02/15 08:32:48;;;;;;;10.80;2.13;;;;;;;11.45;71.36;99652.22;4978412;28;20034;-92
2022/02/15 08:35:17;;;;;;;14.75;1.85;;;;;;;11.28;71.91;99651.03;4976075;28;20026;-92
2022/02/15 08:37:43;;;;;;;8.52;1.65;;;;;;;11.59;70.70;99646.66;4970826;28;20025;-92
2022/02/15 08:40:13;;;;;;;13.15;2.00;;;;;;;11.51;71.38;99649.94;4973657;28;20030;-92
2022/02/15 08:42:40;;;;;;;15.05;2.38;;;;;;;11.42;71.59;99642.00;4977382;28;20027;-92
2022/02/15 08:45:07;;;;;;;9.45;1.63;;;;;;;11.55;71.47;99642.59;4976577;28;20023;-93
2022/02/15 08:47:33;;;;;;;12.80;1.92;;;;;;;11.54;71.28;99619.94;4977756;28;20105;-92
2022/02/15 08:49:59;;;;;;;15.38;1.80;;;;;;;11.57;71.18;99632.81;4977050;28;20026;-90
2022/02/15 08:52:24;;;;;;;14.93;2.50;;;;;;;11.33;72.59;99627.81;4977614;28;20078;-91
2022/02/15 08:54:54;;;;;;;10.13;1.63;;;;;;;11.67;71.18;99627.59;4978664;28;20159;-91
2022/02/15 08:57:20;;;;;;;13.82;2.63;;;;;;;11.59;71.55;99627.41;4978547;28;20101;-91
2022/02/15 08:59:46;;;;;;;11.60;2.03;;;;;;;11.47;72.20;99624.88;4977636;28;20034;-92
2022/02/15 09:02:12;;;;;;;7.05;2.33;;;;;;;11.64;71.57;99619.97;4976613;28;20019;-92
2022/02/15 09:04:38;;;;;;;11.60;1.38;;;;;;;11.61;71.57;99620.22;4956445;28;20054;-92
2022/02/15 09:07:05;;;;;;;15.23;1.88;;;;;;;11.57;71.80;99611.78;4957659;28;20031;-92
2022/02/15 09:09:30;;;;;;;11.48;2.00;;;;;;;11.60;72.22;99613.31;4957932;28;20028;-91
2022/02/15 09:11:56;;;;;;;10.48;1.58;;;;;;;11.43;72.25;99612.97;4956821;28;20038;-93
2022/02/15 09:14:21;;;;;;;10.00;1.58;;;;;;;11.54;72.81;99619.09;4957662;28;20039;-93
2022/02/15 09:16:47;;;;;;;11.27;2.17;;;;;;;11.47;72.98;99598.59;4958295;28;20058;-92
2022/02/15 09:19:13;;;;;;;8.02;2.30;;;;;;;11.80;71.91;99611.63;4967233;28;20079;-91
2022/02/15 09:21:39;;;;;;;8.02;1.02;;;;;;;11.79;71.91;99616.06;4978924;28;20105;-93
2022/02/15 09:24:06;;;;;;;13.52;2.35;;;;;;;11.68;72.31;99616.13;4981283;28;20087;-91
2022/02/15 09:26:31;;;;;;;16.45;1.73;;;;;;;11.62;72.60;99621.91;4979896;28;20067;-91
2022/02/15 09:28:57;;;;;;;9.70;2.17;;;;;;;11.42;73.16;99611.28;4981600;28;20069;-91
2022/02/15 09:31:24;;;;;;;10.25;1.80;;;;;;;11.66;72.59;99616.25;4982447;28;20078;-92
2022/02/15 09:33:54;;;;;;;11.07;2.10;;;;;;;11.54;73.26;99603.31;4978756;28;20105;-91
2022/02/15 09:36:21;;;;;;;10.40;2.17;;;;;;;11.58;73.30;99588.94;4977484;28;20058;-91
2022/02/15 09:38:46;;;;;;;13.98;1.90;;;;;;;11.87;72.25;99586.47;4977263;28;20031;-91
2022/02/15 09:41:13;;;;;;;13.00;1.85;;;;;;;11.43;74.17;99591.06;4977356;28;20031;-91
2022/02/15 09:43:39;;;;;;;9.50;2.05;;;;;;;11.54;74.05;99592.81;4975597;28;20425;-91
2022/02/15 09:46:13;;;;;;;9.02;1.30;;;;;;;11.34;74.47;99597.13;4976606;28;20087;-91
2022/02/15 09:48:39;;;;;;;11.57;2.13;;;;;;;11.61;73.80;99593.94;4976885;28;20041;-91
2022/02/15 09:51:06;;;;;;;7.53;1.73;;;;;;;11.73;73.78;99595.53;4975456;28;20105;-92
2022/02/15 09:53:32;;;;;;;13.55;1.50;;;;;;;12.05;72.47;99597.22;4976617;28;20027;-92
2022/02/15 09:55:58;;;;;;;7.65;1.38;;;;;;;12.06;72.56;99577.81;4975506;28;20166;-91
2022/02/15 09:58:23;;;;;;;8.25;1.73;;;;;;;12.07;72.39;99574.22;4976582;28;20050;-92
2022/02/15 10:00:50;;;;;;;7.43;1.90;;;;;;;11.89;72.98;99564.34;4975324;28;20022;-92
2022/02/15 10:03:15;;;;;;;9.63;1.13;;;;;;;11.77;73.73;99575.03;4976839;28;20030;-92
2022/02/15 10:05:47;;;;;;;6.72;1.25;;;;;;;11.97;73.28;99568.13;4977112;28;20034;-92
2022/02/15 10:08:12;;;;;;;8.30;1.83;;;;;;;11.88;73.50;99557.38;4975056;28;20033;-92
2022/02/15 10:10:39;;;;;;;9.25;1.30;;;;;;;12.21;72.49;99562.50;4976740;28;20038;-92
2022/02/15 10:13:11;;;;;;;6.97;1.25;;;;;;;12.02;73.15;99555.38;4976654;28;20027;-91
2022/02/15 10:15:38;;;;;;;7.68;1.38;;;;;;;12.18;72.73;99549.59;4974893;28;20030;-91
2022/02/15 10:18:10;;;;;;;7.97;1.38;;;;;;;12.22;72.84;99546.56;4975226;28;20034;-92
2022/02/15 10:20:36;;;;;;;6.85;1.08;;;;;;;12.32;72.34;99551.81;4962459;28;20039;-91
2022/02/15 10:23:23;;;;;;;9.85;1.98;;;;;;;12.02;73.77;99556.19;4956651;28;20042;-92
2022/02/15 10:25:51;;;;;;;8.60;1.13;;;;;;;12.24;73.12;99538.50;4955340;28;20062;-92
2022/02/15 10:28:23;;;;;;;11.88;2.75;;;;;;;12.25;73.34;99551.56;4967308;28;20031;-92
2022/02/15 10:30:51;;;;;;;6.75;1.02;;;;;;;12.13;73.94;99544.75;4974844;28;20110;-91
2022/02/15 10:33:19;;;;;;;6.47;1.65;;;;;;;12.11;74.18;99533.53;4976035;28;20030;-91
2022/02/15 10:36:03;;;;;;;10.45;1.77;;;;;;;12.33;73.58;99529.00;4974341;28;20568;-93
2022/02/15 10:38:40;;;;;;;4.88;1.35;;;;;;;12.34;73.62;99539.34;4975775;28;20019;-92
2022/02/15 10:41:11;;;;;;;10.60;1.70;;;;;;;12.10;74.70;99543.22;4975866;28;20031;-92
2022/02/15 10:43:46;;;;;;;7.45;1.17;;;;;;;12.21;74.65;99509.84;4975919;28;20034;-92
2022/02/15 10:46:22;;;;;;;9.18;1.33;;;;;;;12.28;74.67;99513.59;4975526;28;20069;-91
2022/02/15 10:48:49;;;;;;;6.50;1.17;;;;;;;12.42;73.93;99525.50;4973396;28;20019;-91
2022/02/15 10:51:15;;;;;;;6.75;1.15;;;;;;;12.41;74.00;99524.69;4955311;28;20078;-93
2022/02/15 10:53:41;;;;;;;7.60;1.70;;;;;;;12.26;74.85;99518.16;4954874;28;20043;-92
2022/02/15 10:56:08;;;;;;;3.85;0.88;;;;;;;12.20;75.31;99540.59;4956343;28;20038;-93
2022/02/15 10:58:34;;;;;;;7.25;0.88;;;;;;;12.34;75.17;99528.81;4956115;28;20042;-91
2022/02/15 11:01:08;;;;;;;7.82;0.90;;;;;;;12.45;75.01;99533.16;4954909;28;20038;-92
2022/02/15 11:03:38;;;;;;;5.72;0.82;;;;;;;12.30;75.63;99549.34;4956068;28;20035;-91
2022/02/15 11:06:05;;;;;;;7.03;0.77;;;;;;;12.40;75.44;99537.97;4956060;28;20037;-91
2022/02/15 11:08:32;;;;;;;6.40;1.23;;;;;;;12.38;75.51;99524.13;4956102;28;20051;-91
2022/02/15 11:11:10;;;;;;;5.70;1.00;;;;;;;12.42;75.16;99526.38;4955987;28;20390;-92
2022/02/15 11:13:38;;;;;;;5.95;1.35;;;;;;;12.68;74.28;99536.34;4957577;28;20034;-90
2022/02/15 11:16:21;;;;;;;3.05;0.80;;;;;;;12.74;74.64;99529.66;4955807;28;20038;-91
2022/02/15 11:18:47;;;;;;;6.15;1.60;;;;;;;12.69;74.48;99517.75;4959441;28;20428;-91
2022/02/15 11:21:27;;;;;;;6.25;0.80;;;;;;;12.65;74.79;99505.84;4975324;28;20022;-92
2022/02/15 11:24:00;;;;;;;3.95;0.70;;;;;;;12.62;75.36;99507.94;4975449;28;20113;-93
2022/02/15 11:26:42;;;;;;;4.93;0.85;;;;;;;12.81;74.39;99509.72;4975480;28;20062;-91
2022/02/15 11:29:19;;;;;;;3.53;0.93;;;;;;;12.67;75.06;99505.69;4974069;28;20113;-92
2022/02/15 11:31:44;;;;;;;4.35;0.70;;;;;;;12.86;74.41;99502.22;4975213;28;20041;-91
2022/02/15 11:34:12;;;;;;;4.93;0.90;;;;;;;12.77;74.88;99509.16;4973816;28;20121;-92
2022/02/15 11:36:52;;;;;;;3.70;0.60;;;;;;;12.77;75.48;99516.22;4974959;28;20023;-91